Time;durP1;ratioP1;P1;durP2;ratioP2;P2;SDS_P1;SDS_P2;PMS_P1;PMS_P2;Temp;Humidity;BMP_temperature;BMP_pressure;BME280_temperature;BME280_humidity;BME280_pressure;Samples;Min_cycle;Max_cycle;Signal;HPM_P1;HPM_P2
2022/12/04 00:01:47;;;;;;;39.40;23.48;;;0.40;99.90;;;;;;5002510;28;20046;-67
2022/12/04 00:04:13;;;;;;;39.88;21.65;;;1.50;99.90;;;;;;4998105;28;20038;-67
2022/12/04 00:06:38;;;;;;;36.65;19.75;;;0.50;99.90;;;;;;4992221;28;20046;-68
2022/12/04 00:09:04;;;;;;;38.45;23.13;;;0.50;99.90;;;;;;5002396;28;20081;-67
2022/12/04 00:11:31;;;;;;;40.83;24.27;;;0.50;99.90;;;;;;5001902;28;20057;-67
2022/12/04 00:13:58;;;;;;;38.78;23.20;;;0.40;99.90;;;;;;5000748;28;20479;-68
2022/12/04 00:16:27;;;;;;;37.78;23.92;;;0.30;99.90;;;;;;5002327;28;20045;-67
2022/12/04 00:18:53;;;;;;;41.13;24.83;;;0.50;99.90;;;;;;5002825;28;20160;-67
2022/12/04 00:21:20;;;;;;;39.15;22.67;;;0.50;99.90;;;;;;5001055;28;20089;-67
2022/12/04 00:23:46;;;;;;;39.95;25.15;;;0.40;99.90;;;;;;5002442;28;20121;-67
2022/12/04 00:26:15;;;;;;;43.65;24.58;;;0.40;99.90;;;;;;5001797;28;20077;-65
2022/12/04 00:28:41;;;;;;;41.60;23.98;;;1.20;99.90;;;;;;5001348;28;20133;-65
2022/12/04 00:31:10;;;;;;;41.72;25.13;;;0.40;99.90;;;;;;5002091;28;20042;-65
2022/12/04 00:33:36;;;;;;;40.60;23.17;;;0.30;99.90;;;;;;5001575;28;20037;-65
2022/12/04 00:36:05;;;;;;;40.85;25.45;;;0.30;99.90;;;;;;5001725;28;20096;-65
2022/12/04 00:38:30;;;;;;;46.05;27.08;;;0.20;99.90;;;;;;5001064;28;20100;-65
2022/12/04 00:40:56;;;;;;;42.20;26.15;;;0.30;99.90;;;;;;5001086;28;20485;-65
2022/12/04 00:43:22;;;;;;;45.17;27.20;;;0.90;99.90;;;;;;5002916;28;20045;-65
2022/12/04 00:45:49;;;;;;;45.97;28.40;;;0.20;99.90;;;;;;5001863;28;20500;-65
2022/12/04 00:48:14;;;;;;;43.60;24.70;;;0.20;99.90;;;;;;5001710;28;20053;-65
2022/12/04 00:50:40;;;;;;;46.72;26.88;;;0.30;99.90;;;;;;5002389;28;20727;-67
2022/12/04 00:53:06;;;;;;;47.67;27.73;;;0.20;99.90;;;;;;5002351;28;20825;-67
2022/12/04 00:55:32;;;;;;;41.65;22.33;;;0.20;99.90;;;;;;5001285;28;20105;-67
2022/12/04 00:57:57;;;;;;;46.78;24.83;;;0.10;99.90;;;;;;5002027;28;20048;-67
2022/12/04 01:00:23;;;;;;;50.30;28.50;;;0.00;99.90;;;;;;5000854;28;20074;-67
2022/12/04 01:02:49;;;;;;;50.85;29.63;;;0.10;99.90;;;;;;5002194;28;20079;-67
2022/12/04 01:05:14;;;;;;;49.60;29.38;;;0.20;99.90;;;;;;4994101;28;20431;-67
2022/12/04 01:07:40;;;;;;;49.75;26.85;;;0.20;99.90;;;;;;4985649;28;20477;-67
2022/12/04 01:10:10;;;;;;;46.92;27.50;;;0.10;99.90;;;;;;4983227;28;20042;-67
2022/12/04 01:12:35;;;;;;;47.13;28.05;;;0.20;99.90;;;;;;4982575;28;20126;-67
2022/12/04 01:15:01;;;;;;;49.08;28.27;;;0.10;99.90;;;;;;4981245;28;20042;-67
2022/12/04 01:17:27;;;;;;;50.42;29.65;;;0.10;99.90;;;;;;4983345;28;20053;-67
2022/12/04 01:19:53;;;;;;;48.88;29.08;;;0.30;99.90;;;;;;4965492;28;20705;-67
2022/12/04 01:22:18;;;;;;;48.22;28.45;;;1.40;99.90;;;;;;4982943;28;20050;-67
2022/12/04 01:24:44;;;;;;;48.00;27.58;;;1.00;99.90;;;;;;4981762;28;20042;-67
2022/12/04 01:27:10;;;;;;;51.80;30.17;;;0.00;99.90;;;;;;4983252;28;20055;-67
2022/12/04 01:29:35;;;;;;;50.60;28.08;;;0.00;99.90;;;;;;4981453;28;20580;-67
2022/12/04 01:32:01;;;;;;;51.85;29.70;;;0.00;99.90;;;;;;4982537;28;20046;-67
2022/12/04 01:34:27;;;;;;;51.13;27.17;;;0.00;99.90;;;;;;4982210;28;20425;-67
2022/12/04 01:36:52;;;;;;;45.60;26.10;;;0.30;99.90;;;;;;4984532;28;20057;-68
2022/12/04 01:39:18;;;;;;;51.08;30.17;;;-0.10;99.90;;;;;;4985958;28;20133;-67
2022/12/04 01:41:44;;;;;;;51.45;29.25;;;0.80;99.90;;;;;;4985456;28;20824;-67
2022/12/04 01:44:11;;;;;;;48.97;28.25;;;-0.10;99.90;;;;;;4985177;28;20138;-65
2022/12/04 01:46:38;;;;;;;51.15;29.00;;;0.00;99.90;;;;;;4985925;28;20121;-64
2022/12/04 01:49:11;;;;;;;51.50;29.52;;;0.00;99.90;;;;;;4986292;28;20039;-65
2022/12/04 01:51:41;;;;;;;48.42;27.77;;;0.00;99.90;;;;;;4986227;28;20042;-65
2022/12/04 01:54:14;;;;;;;51.20;28.98;;;0.00;99.90;;;;;;4985979;28;20038;-65
2022/12/04 01:56:51;;;;;;;51.78;27.58;;;1.20;99.90;;;;;;4984025;28;20074;-64
2022/12/04 01:59:20;;;;;;;49.60;29.40;;;-0.20;99.90;;;;;;4984877;28;20046;-65
2022/12/04 02:02:01;;;;;;;52.88;28.30;;;0.00;99.90;;;;;;4985769;28;20046;-65
2022/12/04 02:04:27;;;;;;;51.38;27.55;;;0.00;99.90;;;;;;4987852;28;20513;-65
2022/12/04 02:06:53;;;;;;;53.67;29.85;;;0.70;99.90;;;;;;4994194;28;20049;-65
2022/12/04 02:09:22;;;;;;;49.55;28.13;;;0.00;99.90;;;;;;4985549;28;20494;-65
2022/12/04 02:12:16;;;;;;;49.13;28.05;;;-0.20;99.90;;;;;;4984446;28;20055;-65
2022/12/04 02:14:54;;;;;;;56.03;30.80;;;0.30;99.90;;;;;;4984657;28;20054;-65
2022/12/04 02:17:29;;;;;;;50.95;29.20;;;0.00;99.90;;;;;;4976751;28;20038;-65
2022/12/04 02:20:09;;;;;;;;;;;0.00;99.90;;;;;;5005413;28;20050;-65
2022/12/04 02:23:04;;;;;;;52.55;30.08;;;-0.10;99.90;;;;;;5004210;28;20372;-65
2022/12/04 02:25:42;;;;;;;50.60;29.30;;;-0.10;99.90;;;;;;5005877;28;20100;-65
2022/12/04 02:28:22;;;;;;;53.92;30.42;;;0.00;99.90;;;;;;5004985;28;20046;-65
2022/12/04 02:30:53;;;;;;;49.95;28.83;;;0.20;99.90;;;;;;5004666;28;20443;-65
2022/12/04 02:33:40;;;;;;;52.80;28.23;;;-0.20;99.90;;;;;;5004040;28;20508;-65
2022/12/04 02:36:10;;;;;;;51.75;30.00;;;-0.20;99.90;;;;;;5004667;28;20057;-65
2022/12/04 02:38:44;;;;;;;52.60;29.33;;;-0.10;99.90;;;;;;5003762;28;20052;-65
2022/12/04 02:41:21;;;;;;;55.20;31.15;;;0.90;99.90;;;;;;5004424;28;20046;-65
2022/12/04 02:43:57;;;;;;;54.08;30.33;;;0.00;99.90;;;;;;5003638;28;20085;-65
2022/12/04 02:46:38;;;;;;;55.05;31.25;;;-0.10;99.90;;;;;;5005054;28;20086;-65
2022/12/04 02:49:08;;;;;;;54.45;32.10;;;-0.10;99.90;;;;;;5003256;28;20247;-65
2022/12/04 02:51:36;;;;;;;50.97;29.80;;;-0.10;99.90;;;;;;5003898;28;20054;-65
2022/12/04 02:54:07;;;;;;;52.30;31.67;;;-0.10;99.90;;;;;;5005232;28;20041;-65
2022/12/04 02:56:39;;;;;;;53.38;30.38;;;-0.20;99.90;;;;;;5002858;28;20050;-65
2022/12/04 02:59:16;;;;;;;53.20;30.83;;;0.50;99.90;;;;;;5002657;28;20065;-66
2022/12/04 03:01:46;;;;;;;53.45;29.60;;;0.00;99.90;;;;;;5002702;28;20057;-65
2022/12/04 03:04:15;;;;;;;55.10;31.85;;;-0.20;99.90;;;;;;5000952;28;20113;-65
2022/12/04 03:06:44;;;;;;;54.35;31.25;;;-0.20;99.90;;;;;;4992402;28;20188;-65
2022/12/04 03:09:10;;;;;;;55.70;31.40;;;-0.10;99.90;;;;;;4984935;28;20077;-65
2022/12/04 03:11:39;;;;;;;53.25;30.98;;;-0.10;99.90;;;;;;4983602;28;20608;-65
2022/12/04 03:14:16;;;;;;;54.00;30.75;;;0.40;99.90;;;;;;4982447;28;20054;-65
2022/12/04 03:16:42;;;;;;;56.28;32.20;;;0.20;99.90;;;;;;4983950;28;20033;-65
2022/12/04 03:19:17;;;;;;;55.28;31.67;;;-0.10;99.90;;;;;;4984203;28;20057;-66
2022/12/04 03:21:56;;;;;;;50.25;27.58;;;-0.20;99.90;;;;;;4984012;28;20046;-65
2022/12/04 03:24:36;;;;;;;57.70;32.45;;;-0.10;99.90;;;;;;4983358;28;20074;-65
2022/12/04 03:27:20;;;;;;;56.90;31.88;;;-0.30;99.90;;;;;;4983797;28;20378;-65
2022/12/04 03:29:55;;;;;;;59.88;33.47;;;-0.10;99.90;;;;;;4983188;28;20512;-65
2022/12/04 03:32:25;;;;;;;;;;;-0.20;99.90;;;;;;4983608;28;20061;-65
2022/12/04 03:35:05;;;;;;;55.28;30.10;;;1.70;99.90;;;;;;4984547;28;20016;-65
2022/12/04 03:37:35;;;;;;;53.13;30.77;;;-0.10;99.90;;;;;;4984290;28;20121;-65
2022/12/04 03:40:22;;;;;;;58.10;32.53;;;-0.30;99.90;;;;;;4984285;28;20603;-65
2022/12/04 03:43:18;;;;;;;58.33;30.88;;;-0.20;99.90;;;;;;4982222;28;20053;-65
2022/12/04 03:45:57;;;;;;;58.95;32.53;;;-0.30;99.90;;;;;;4981970;28;20054;-65
2022/12/04 03:48:30;;;;;;;51.05;27.88;;;0.50;99.90;;;;;;4982640;28;20701;-65
2022/12/04 03:51:01;;;;;;;56.10;31.85;;;-0.20;99.90;;;;;;4966039;28;20050;-65
2022/12/04 03:53:36;;;;;;;55.50;31.85;;;-0.30;99.90;;;;;;4983673;28;20085;-65
2022/12/04 03:56:14;;;;;;;55.22;31.83;;;-0.10;99.90;;;;;;4983660;28;20113;-65
2022/12/04 03:58:45;;;;;;;55.63;31.27;;;-0.40;99.90;;;;;;4982934;28;20046;-65
2022/12/04 04:01:12;;;;;;;59.53;32.38;;;-0.20;99.90;;;;;;4982536;28;20279;-65
2022/12/04 04:03:52;;;;;;;54.83;29.80;;;-0.10;99.90;;;;;;4984132;28;20605;-66
2022/12/04 04:06:41;;;;;;;54.83;30.60;;;1.30;99.90;;;;;;4991192;28;20068;-65
2022/12/04 04:09:18;;;;;;;59.28;32.70;;;-0.20;99.90;;;;;;5002714;28;20743;-65
2022/12/04 04:11:51;;;;;;;56.47;31.95;;;-0.30;99.90;;;;;;5002951;28;20140;-65
2022/12/04 04:26:15;;;;;;;57.55;32.47;;;-0.10;99.90;;;;;;5001232;28;20085;-65
2022/12/04 04:28:41;;;;;;;53.78;29.88;;;-0.30;99.90;;;;;;5000882;28;20057;-65
2022/12/04 04:31:39;;;;;;;58.90;31.83;;;-0.30;99.90;;;;;;5001252;28;20038;-65
2022/12/04 04:34:29;;;;;;;56.63;31.27;;;-0.20;99.90;;;;;;5003683;28;20077;-65
2022/12/04 04:37:09;;;;;;;56.42;32.20;;;-0.20;99.90;;;;;;5003083;28;20053;-65
2022/12/04 04:39:46;;;;;;;53.72;31.27;;;-0.20;99.90;;;;;;5002413;28;20121;-65
2022/12/04 04:42:23;;;;;;;53.58;31.67;;;-0.30;99.90;;;;;;5001146;28;20053;-65
2022/12/04 04:45:04;;;;;;;53.17;29.83;;;-0.30;99.90;;;;;;5000736;28;20049;-65
2022/12/04 04:47:50;;;;;;;55.72;30.17;;;-0.30;99.90;;;;;;5001074;28;20057;-65
2022/12/04 04:50:17;;;;;;;56.92;32.33;;;-0.30;99.90;;;;;;5001417;28;20117;-66
2022/12/04 04:52:48;;;;;;;58.05;33.78;;;-0.20;99.90;;;;;;4999639;28;20042;-65
2022/12/04 04:55:16;;;;;;;57.75;32.22;;;0.80;99.90;;;;;;5001175;28;20722;-65
2022/12/04 04:57:42;;;;;;;57.47;33.42;;;-0.30;99.90;;;;;;5001479;28;20401;-65
2022/12/04 05:00:13;;;;;;;52.85;31.25;;;0.10;99.90;;;;;;4999310;28;20042;-65
2022/12/04 05:02:38;;;;;;;52.38;29.85;;;-0.20;99.90;;;;;;5002036;28;20386;-65
2022/12/04 05:05:04;;;;;;;55.30;30.98;;;1.70;99.90;;;;;;4996461;28;20061;-65
2022/12/04 05:07:30;;;;;;;57.75;32.85;;;-0.20;99.90;;;;;;4986787;28;20093;-65
2022/12/04 05:09:56;;;;;;;59.42;35.28;;;-0.40;99.90;;;;;;4982164;28;20042;-65
2022/12/04 05:12:22;;;;;;;55.63;32.80;;;0.00;99.90;;;;;;4984681;28;20046;-65
2022/12/04 05:14:48;;;;;;;55.72;31.55;;;0.00;99.90;;;;;;4986609;28;20047;-65
2022/12/04 05:17:14;;;;;;;54.42;32.72;;;-0.20;99.90;;;;;;4986158;28;20485;-66
2022/12/04 05:19:55;;;;;;;60.55;33.33;;;-0.20;99.90;;;;;;4986251;28;20053;-65
2022/12/04 05:22:33;;;;;;;56.65;31.85;;;1.40;99.90;;;;;;4986036;28;20042;-65
2022/12/04 05:24:59;;;;;;;52.53;30.88;;;1.70;99.90;;;;;;4984204;28;20084;-65
2022/12/04 05:27:27;;;;;;;54.38;32.55;;;0.00;99.90;;;;;;4986388;28;20569;-65
2022/12/04 05:29:57;;;;;;;56.58;33.80;;;0.00;99.90;;;;;;4985185;28;20074;-66
2022/12/04 05:32:25;;;;;;;55.08;32.33;;;0.00;99.90;;;;;;4985717;28;20389;-65
2022/12/04 05:34:52;;;;;;;53.80;30.70;;;-0.10;99.90;;;;;;4986086;28;20664;-65
2022/12/04 05:37:19;;;;;;;56.15;32.85;;;-0.10;99.90;;;;;;4986448;28;20490;-65
2022/12/04 05:39:45;;;;;;;55.63;33.58;;;0.00;99.90;;;;;;4986077;28;20058;-65
2022/12/04 05:42:11;;;;;;;54.42;31.50;;;-0.20;99.90;;;;;;4984320;28;20068;-65
2022/12/04 05:44:37;;;;;;;53.78;31.20;;;0.00;99.90;;;;;;4985537;28;20042;-65
2022/12/04 05:47:03;;;;;;;55.95;33.17;;;0.00;99.90;;;;;;4986430;28;20074;-65
2022/12/04 05:49:30;;;;;;;58.65;34.20;;;-0.10;99.90;;;;;;4985712;28;20041;-65
2022/12/04 05:51:55;;;;;;;56.67;32.30;;;-0.10;99.90;;;;;;4986048;28;20449;-65
2022/12/04 05:54:21;;;;;;;59.25;33.38;;;-0.10;99.90;;;;;;4985900;28;20039;-65
2022/12/04 05:56:47;;;;;;;54.03;31.63;;;0.10;99.90;;;;;;4985562;28;20070;-65
2022/12/04 05:59:13;;;;;;;57.92;33.10;;;0.40;99.90;;;;;;4984763;28;20752;-65
2022/12/04 06:01:39;;;;;;;56.63;32.22;;;-0.10;99.90;;;;;;4986263;28;20390;-65
2022/12/04 06:04:05;;;;;;;55.63;33.63;;;1.40;99.90;;;;;;4986813;28;20117;-65
2022/12/04 06:06:31;;;;;;;58.95;33.78;;;1.80;99.90;;;;;;4993859;28;20185;-65
2022/12/04 06:08:58;;;;;;;54.45;31.50;;;0.00;99.90;;;;;;4985178;28;20042;-65
2022/12/04 06:11:36;;;;;;;56.83;31.75;;;1.80;99.90;;;;;;4985525;28;20108;-66
2022/12/04 06:14:04;;;;;;;56.90;33.47;;;0.00;99.90;;;;;;4984806;28;20153;-65
2022/12/04 06:16:35;;;;;;;56.13;32.95;;;0.00;99.90;;;;;;4984251;28;20104;-66
2022/12/04 06:19:05;;;;;;;53.72;30.35;;;0.00;99.90;;;;;;4985446;28;20046;-66
2022/12/04 06:21:34;;;;;;;62.80;35.80;;;1.70;99.90;;;;;;4985400;28;20061;-65
2022/12/04 06:24:00;;;;;;;59.15;33.30;;;0.10;99.90;;;;;;4983618;28;20549;-65
2022/12/04 06:26:26;;;;;;;61.42;33.53;;;1.50;99.90;;;;;;4983944;28;20046;-65
2022/12/04 06:28:53;;;;;;;56.30;32.63;;;0.20;99.90;;;;;;4982970;28;20175;-65
2022/12/04 06:31:19;;;;;;;60.90;34.33;;;0.30;99.90;;;;;;4984276;28;20581;-66
2022/12/04 06:33:45;;;;;;;58.50;32.50;;;0.10;99.90;;;;;;4985402;28;20041;-65
2022/12/04 06:36:14;;;;;;;58.28;32.45;;;0.00;99.90;;;;;;4985753;28;20412;-65
2022/12/04 06:38:40;;;;;;;58.92;34.53;;;0.40;99.90;;;;;;4983711;28;20535;-65
2022/12/04 06:41:07;;;;;;;55.03;31.80;;;0.90;99.90;;;;;;4984296;28;20038;-65
2022/12/04 06:43:34;;;;;;;58.58;33.47;;;0.00;99.90;;;;;;4982608;28;20050;-65
2022/12/04 06:46:05;;;;;;;58.03;33.22;;;1.90;99.90;;;;;;4983638;28;20563;-65
2022/12/04 06:48:31;;;;;;;59.95;33.58;;;0.00;99.90;;;;;;4984384;28;20042;-65
2022/12/04 06:51:00;;;;;;;57.83;33.88;;;0.90;99.90;;;;;;4985291;28;20050;-65
2022/12/04 06:53:29;;;;;;;55.95;31.88;;;1.20;99.90;;;;;;4984660;28;20045;-65
2022/12/04 06:55:55;;;;;;;58.88;32.65;;;0.60;99.90;;;;;;4984839;28;20054;-65
2022/12/04 06:58:21;;;;;;;55.42;32.95;;;0.00;99.90;;;;;;4983339;28;20129;-65
2022/12/04 07:00:47;;;;;;;55.85;32.75;;;0.10;99.90;;;;;;4984890;28;20126;-65
2022/12/04 07:03:12;;;;;;;58.00;31.30;;;0.00;99.90;;;;;;4985260;28;20469;-65
2022/12/04 07:05:38;;;;;;;57.72;32.67;;;0.00;99.90;;;;;;4994153;28;20053;-65
2022/12/04 07:08:04;;;;;;;54.78;31.05;;;0.00;99.90;;;;;;4984673;28;20054;-65
2022/12/04 07:10:29;;;;;;;56.50;32.03;;;0.20;99.90;;;;;;4984943;28;20074;-65
2022/12/04 07:12:55;;;;;;;57.08;32.03;;;0.20;99.90;;;;;;4984119;28;20531;-65
2022/12/04 07:15:21;;;;;;;54.88;32.38;;;1.10;99.90;;;;;;4983498;28;20045;-65
2022/12/04 07:17:46;;;;;;;53.38;31.63;;;1.70;99.90;;;;;;4984881;28;20078;-65
2022/12/04 07:20:12;;;;;;;56.70;32.60;;;0.00;99.90;;;;;;4985062;28;20046;-65
2022/12/04 07:22:38;;;;;;;53.03;31.70;;;0.20;99.90;;;;;;4984113;28;20050;-65
2022/12/04 07:25:04;;;;;;;55.50;29.60;;;1.90;99.90;;;;;;4981697;28;20042;-65
2022/12/04 07:27:30;;;;;;;55.38;31.92;;;0.20;99.90;;;;;;4983712;28;20042;-65
2022/12/04 07:29:56;;;;;;;53.67;30.90;;;0.20;99.90;;;;;;4982768;28;20034;-66
2022/12/04 07:32:21;;;;;;;57.25;30.63;;;0.70;99.90;;;;;;4984566;28;20438;-66
2022/12/04 07:34:47;;;;;;;53.35;30.83;;;;;;;;;;4983053;28;20580;-65
2022/12/04 07:37:13;;;;;;;53.47;30.38;;;0.20;99.90;;;;;;4984550;28;20125;-65
2022/12/04 07:39:39;;;;;;;53.35;31.10;;;0.30;99.90;;;;;;4983590;28;20161;-65
2022/12/04 07:42:04;;;;;;;54.03;31.60;;;0.10;99.90;;;;;;4983564;28;20161;-65
2022/12/04 07:44:30;;;;;;;55.15;32.22;;;0.10;99.90;;;;;;4981229;28;20050;-65
2022/12/04 07:46:57;;;;;;;47.08;28.55;;;0.20;99.90;;;;;;4983882;28;20129;-65
2022/12/04 07:49:22;;;;;;;53.95;30.13;;;0.10;99.90;;;;;;4981945;28;20046;-65
2022/12/04 07:51:48;;;;;;;53.45;30.95;;;0.30;99.90;;;;;;4983404;28;20508;-65
2022/12/04 07:54:14;;;;;;;52.65;31.33;;;0.50;99.90;;;;;;4983044;28;20571;-65
2022/12/04 07:56:39;;;;;;;49.75;30.05;;;1.20;99.90;;;;;;4982175;28;20050;-65
2022/12/04 07:59:05;;;;;;;52.50;32.03;;;0.30;99.90;;;;;;4982618;28;20125;-65
2022/12/04 08:01:31;;;;;;;52.35;30.65;;;0.40;99.90;;;;;;4982964;28;20046;-65
2022/12/04 08:03:58;;;;;;;52.08;30.23;;;0.20;99.90;;;;;;4985288;28;20473;-65
2022/12/04 08:06:26;;;;;;;51.55;30.67;;;0.30;99.90;;;;;;4990370;28;20050;-65
2022/12/04 08:08:53;;;;;;;52.20;31.73;;;1.30;99.90;;;;;;4983218;28;20042;-65
2022/12/04 08:11:21;;;;;;;52.25;29.63;;;0.50;99.90;;;;;;4982913;28;20056;-66
2022/12/04 08:13:48;;;;;;;52.60;31.67;;;0.60;99.90;;;;;;4981373;28;20449;-65
2022/12/04 08:16:14;;;;;;;49.20;30.77;;;0.50;99.90;;;;;;4983268;28;20051;-66
2022/12/04 08:18:45;;;;;;;49.15;30.60;;;0.40;99.90;;;;;;4981242;28;20210;-65
2022/12/04 08:21:13;;;;;;;48.92;29.80;;;0.30;99.90;;;;;;4981880;28;20050;-65
2022/12/04 08:23:40;;;;;;;49.92;29.42;;;0.60;99.90;;;;;;4983271;28;20050;-65
2022/12/04 08:26:07;;;;;;;53.40;31.58;;;0.60;99.90;;;;;;4981348;28;20057;-65
2022/12/04 08:28:33;;;;;;;51.55;30.63;;;1.00;99.90;;;;;;4982289;28;20137;-65
2022/12/04 08:31:11;;;;;;;45.90;28.95;;;0.40;99.90;;;;;;4982897;28;20046;-65
2022/12/04 08:33:37;;;;;;;53.30;30.30;;;0.40;99.90;;;;;;4982187;28;20129;-65
2022/12/04 08:36:08;;;;;;;50.20;30.45;;;0.70;99.90;;;;;;4982891;28;20054;-65
2022/12/04 08:38:34;;;;;;;45.63;29.08;;;0.60;99.90;;;;;;4981830;28;20054;-65
2022/12/04 08:41:01;;;;;;;48.13;30.02;;;0.70;99.90;;;;;;4983213;28;20035;-65
2022/12/04 08:43:27;;;;;;;46.53;28.38;;;1.20;99.90;;;;;;4981287;28;20440;-65
2022/12/04 08:46:00;;;;;;;49.30;29.00;;;1.50;99.90;;;;;;4982373;28;20053;-66
2022/12/04 08:48:26;;;;;;;48.97;29.77;;;0.70;99.90;;;;;;4983293;28;20096;-66
2022/12/04 08:50:52;;;;;;;47.17;29.85;;;0.80;99.90;;;;;;4982095;28;20053;-65
2022/12/04 08:53:19;;;;;;;49.17;30.38;;;0.60;99.90;;;;;;4983240;28;20500;-65
2022/12/04 08:55:44;;;;;;;49.08;30.13;;;0.70;99.90;;;;;;4982298;28;20044;-65
2022/12/04 08:58:11;;;;;;;47.13;29.95;;;2.30;99.90;;;;;;4981784;28;20125;-65
2022/12/04 09:00:37;;;;;;;49.58;29.85;;;0.70;99.90;;;;;;4980427;28;20703;-66
2022/12/04 09:03:03;;;;;;;46.05;27.23;;;1.90;99.90;;;;;;4981488;28;20046;-65
2022/12/04 09:05:29;;;;;;;46.70;29.88;;;0.80;99.90;;;;;;4988265;28;20429;-66
2022/12/04 09:07:55;;;;;;;46.10;28.88;;;2.50;99.90;;;;;;5000347;28;20048;-65
2022/12/04 09:10:21;;;;;;;39.33;24.75;;;1.10;99.90;;;;;;5002903;28;20668;-65
2022/12/04 09:12:47;;;;;;;43.22;26.00;;;1.00;99.90;;;;;;5001482;28;20529;-65
2022/12/04 09:15:13;;;;;;;44.35;28.98;;;1.00;99.90;;;;;;5000935;28;20085;-65
2022/12/04 09:17:38;;;;;;;44.28;28.13;;;1.10;99.90;;;;;;5000915;28;20038;-65
2022/12/04 09:20:05;;;;;;;45.53;27.10;;;1.10;99.90;;;;;;5001265;28;20076;-66
2022/12/04 09:22:33;;;;;;;40.25;25.38;;;1.00;99.90;;;;;;5002093;28;20053;-66
2022/12/04 09:24:58;;;;;;;34.40;21.42;;;1.00;99.90;;;;;;5001861;28;20055;-66
2022/12/04 09:27:24;;;;;;;36.85;22.80;;;2.40;99.90;;;;;;4999188;28;20049;-66
2022/12/04 09:29:50;;;;;;;34.65;21.98;;;1.30;99.90;;;;;;5002389;28;20116;-66
2022/12/04 09:32:15;;;;;;;36.90;24.42;;;2.10;99.90;;;;;;5002058;28;20046;-66
2022/12/04 09:34:41;;;;;;;35.20;23.15;;;2.40;99.90;;;;;;5002210;28;20564;-66
2022/12/04 09:37:06;;;;;;;30.23;18.95;;;1.40;99.90;;;;;;5000735;28;20042;-66
2022/12/04 09:39:32;;;;;;;33.58;21.60;;;1.40;99.90;;;;;;5001814;28;20085;-66
2022/12/04 09:42:15;;;;;;;38.08;22.35;;;1.60;99.90;;;;;;5002134;28;20500;-66
2022/12/04 09:44:58;;;;;;;33.53;20.13;;;1.40;99.90;;;;;;5002229;28;20058;-66
2022/12/04 09:47:38;;;;;;;36.15;23.00;;;1.40;99.90;;;;;;5001112;28;20041;-66
2022/12/04 09:50:28;;;;;;;34.85;22.90;;;1.40;99.90;;;;;;5001776;28;20054;-66
2022/12/04 09:53:10;;;;;;;37.25;23.10;;;1.40;99.90;;;;;;5002295;28;20042;-66
2022/12/04 09:55:43;;;;;;;34.70;20.48;;;1.50;99.90;;;;;;5002037;28;20046;-66
2022/12/04 09:58:19;;;;;;;32.40;18.10;;;1.50;99.90;;;;;;5001001;28;20045;-66
2022/12/04 10:00:48;;;;;;;36.65;22.17;;;1.50;99.90;;;;;;4987104;28;20053;-66
2022/12/04 10:03:17;;;;;;;35.67;22.58;;;1.50;99.90;;;;;;5004733;28;20103;-66
2022/12/04 10:06:05;;;;;;;35.08;22.80;;;1.50;99.90;;;;;;4998212;28;20052;-66
2022/12/04 10:08:34;;;;;;;34.72;22.55;;;1.50;99.90;;;;;;4984709;28;20124;-65
2022/12/04 10:11:24;;;;;;;35.33;22.70;;;1.50;99.90;;;;;;4984771;28;20073;-65
2022/12/04 10:14:13;;;;;;;33.88;20.50;;;1.50;99.90;;;;;;4983678;28;20049;-66
2022/12/04 10:16:39;;;;;;;31.73;20.75;;;2.10;99.90;;;;;;4983760;28;20045;-66
2022/12/04 10:19:14;;;;;;;30.90;19.67;;;2.20;99.90;;;;;;4984685;28;20046;-66
2022/12/04 10:21:45;;;;;;;30.52;19.73;;;1.80;99.90;;;;;;4984634;28;20049;-65
2022/12/04 10:24:31;;;;;;;32.42;18.58;;;2.00;99.90;;;;;;4983787;28;20130;-65
2022/12/04 10:27:01;;;;;;;30.63;19.50;;;2.60;99.90;;;;;;4983377;28;20548;-66
2022/12/04 10:29:31;;;;;;;31.38;19.55;;;3.60;99.90;;;;;;4982548;28;20084;-65
2022/12/04 10:32:19;;;;;;;28.48;19.05;;;1.80;99.90;;;;;;4984929;28;20038;-66
2022/12/04 10:34:47;;;;;;;30.52;19.80;;;1.80;99.90;;;;;;4983178;28;20046;-66
2022/12/04 10:37:13;;;;;;;28.00;17.40;;;1.80;99.90;;;;;;4983718;28;20045;-66
2022/12/04 10:40:06;;;;;;;28.83;17.75;;;1.70;99.90;;;;;;4965790;28;20134;-66
2022/12/04 10:42:45;;;;;;;25.63;15.20;;;1.80;99.90;;;;;;4980124;28;20733;-66
2022/12/04 10:45:12;;;;;;;27.38;18.05;;;1.90;99.90;;;;;;4981949;28;20074;-66
2022/12/04 10:47:46;;;;;;;25.40;17.67;;;1.80;99.90;;;;;;4983896;28;20046;-65
2022/12/04 10:50:17;;;;;;;29.35;17.95;;;2.10;99.90;;;;;;4982825;28;20690;-65
2022/12/04 10:52:43;;;;;;;25.85;16.73;;;1.90;99.90;;;;;;4980868;28;20052;-66
2022/12/04 10:55:09;;;;;;;26.92;17.85;;;1.90;99.90;;;;;;5001197;28;20079;-66
2022/12/04 10:57:45;;;;;;;24.65;17.20;;;2.70;99.90;;;;;;4993881;28;20054;-66
2022/12/04 11:00:31;;;;;;;27.42;17.33;;;1.90;99.90;;;;;;4992734;28;20049;-66
2022/12/04 11:03:07;;;;;;;25.48;16.83;;;1.80;99.90;;;;;;4987933;28;20037;-66
2022/12/04 11:05:43;;;;;;;25.17;16.42;;;1.90;99.90;;;;;;4993794;28;20052;-66
2022/12/04 11:08:23;;;;;;;26.17;15.77;;;2.20;99.90;;;;;;4993068;28;20072;-66
2022/12/04 11:10:58;;;;;;;25.27;16.00;;;2.80;99.90;;;;;;4990286;28;20625;-65
2022/12/04 11:13:25;;;;;;;27.77;18.70;;;1.90;99.90;;;;;;4981247;28;20054;-65
2022/12/04 11:15:54;;;;;;;28.17;16.92;;;1.90;99.90;;;;;;4981300;28;20493;-65
2022/12/04 11:18:21;;;;;;;29.23;19.42;;;1.90;99.90;;;;;;4981347;28;20058;-65
2022/12/04 11:20:58;;;;;;;28.23;17.20;;;1.80;99.90;;;;;;4980594;28;20077;-65
2022/12/04 11:23:25;;;;;;;28.60;18.70;;;1.80;99.90;;;;;;4979763;28;20058;-65
2022/12/04 11:25:55;;;;;;;28.63;18.77;;;2.00;99.90;;;;;;4987057;28;20078;-65
2022/12/04 11:28:24;;;;;;;26.73;17.48;;;1.90;99.90;;;;;;4980197;28;20050;-65
2022/12/04 11:30:53;;;;;;;30.17;18.50;;;1.80;99.90;;;;;;4992038;28;20046;-66
2022/12/04 11:33:24;;;;;;;26.58;18.05;;;2.30;99.90;;;;;;4999292;28;20424;-66
2022/12/04 11:35:52;;;;;;;28.15;15.60;;;2.00;99.90;;;;;;5000825;28;20057;-65
2022/12/04 11:38:22;;;;;;;29.20;19.40;;;1.80;99.90;;;;;;4986688;28;20442;-65
2022/12/04 11:40:51;;;;;;;27.33;18.02;;;1.90;99.90;;;;;;4980387;28;20042;-66
2022/12/04 11:43:18;;;;;;;27.52;18.15;;;1.80;99.90;;;;;;4997505;28;20042;-65
2022/12/04 11:45:58;;;;;;;26.50;18.15;;;2.00;99.90;;;;;;5001987;28;20077;-65
2022/12/04 11:48:24;;;;;;;26.58;15.50;;;1.90;99.90;;;;;;4998107;28;20056;-65
2022/12/04 11:51:09;;;;;;;27.02;17.77;;;2.80;99.90;;;;;;5001390;28;20050;-65
2022/12/04 11:53:48;;;;;;;28.15;18.88;;;2.00;99.90;;;;;;5000119;28;20057;-65
2022/12/04 11:56:21;;;;;;;27.30;17.73;;;2.00;99.90;;;;;;5000396;28;20046;-65
2022/12/04 11:59:06;;;;;;;27.92;18.90;;;2.00;99.90;;;;;;4999296;28;20054;-65
2022/12/04 12:01:34;;;;;;;27.23;18.08;;;1.90;99.90;;;;;;5000303;28;20045;-66
2022/12/04 12:04:21;;;;;;;28.55;18.40;;;2.00;99.90;;;;;;4999396;28;20039;-66
2022/12/04 12:07:16;;;;;;;27.65;18.52;;;1.90;99.90;;;;;;4988903;28;20074;-66
2022/12/04 12:09:47;;;;;;;29.55;19.98;;;2.00;99.90;;;;;;4980883;28;20133;-65
2022/12/04 12:12:27;;;;;;;31.15;19.50;;;1.90;99.90;;;;;;4981065;28;20051;-65
2022/12/04 12:15:12;;;;;;;30.00;19.10;;;2.00;99.90;;;;;;4991632;28;20065;-66
2022/12/04 12:18:04;;;;;;;31.20;19.63;;;2.10;99.90;;;;;;5000309;28;20121;-65
2022/12/04 12:20:53;;;;;;;28.60;19.38;;;1.90;99.90;;;;;;4992432;28;20678;-65
2022/12/04 12:23:44;;;;;;;30.58;20.10;;;2.00;99.90;;;;;;4981890;28;20072;-66
2022/12/04 12:26:14;;;;;;;29.70;19.33;;;1.90;99.90;;;;;;5002053;28;20460;-65
2022/12/04 12:29:04;;;;;;;29.85;19.02;;;2.00;99.90;;;;;;5001350;28;20120;-65
2022/12/04 12:31:54;;;;;;;31.88;20.35;;;2.00;99.90;;;;;;4999783;28;20058;-65
2022/12/04 12:34:38;;;;;;;28.73;18.98;;;2.00;99.90;;;;;;5001812;28;20125;-66
2022/12/04 12:37:15;;;;;;;31.52;18.55;;;1.90;99.90;;;;;;5000838;28;20042;-66
2022/12/04 12:40:05;;;;;;;28.63;19.02;;;1.90;99.90;;;;;;5001894;28;20191;-65
2022/12/04 12:42:36;;;;;;;27.15;18.25;;;2.00;99.90;;;;;;5000414;28;20054;-66
2022/12/04 12:45:40;;;;;;;26.58;19.00;;;2.10;99.90;;;;;;5002113;28;20046;-66
2022/12/04 12:48:18;;;;;;;29.75;18.92;;;2.10;99.90;;;;;;5001821;28;20042;-66
2022/12/04 12:50:50;;;;;;;29.55;19.10;;;2.10;99.90;;;;;;5000032;28;20104;-66
2022/12/04 12:53:21;;;;;;;31.50;19.73;;;2.20;99.90;;;;;;5001212;28;20065;-66
2022/12/04 12:55:53;;;;;;;29.17;19.48;;;2.20;99.90;;;;;;5001900;28;20046;-66
2022/12/04 12:58:41;;;;;;;30.13;18.80;;;2.10;99.90;;;;;;5000301;28;20038;-66
2022/12/04 13:01:18;;;;;;;29.85;20.00;;;2.20;99.90;;;;;;5001544;28;20065;-66
2022/12/04 13:04:09;;;;;;;32.55;20.58;;;2.10;99.90;;;;;;4999221;28;20421;-66
2022/12/04 13:06:44;;;;;;;31.75;19.85;;;2.10;99.90;;;;;;4990070;28;20120;-66
2022/12/04 13:09:09;;;;;;;;;;;2.90;99.90;;;;;;4982303;28;20468;-66